sensor_id;sensor_type;location;lat;lon;timestamp;temperature;humidity
42905;DHT22;28550;51.228;4.528;2023-03-24T00:02:03;12.80;99.50
42905;DHT22;28550;51.228;4.528;2023-03-24T00:04:29;12.90;98.80
42905;DHT22;28550;51.228;4.528;2023-03-24T00:06:54;12.80;99.10
42905;DHT22;28550;51.228;4.528;2023-03-24T00:09:20;12.90;99.90
42905;DHT22;28550;51.228;4.528;2023-03-24T00:11:45;12.80;99.90
42905;DHT22;28550;51.228;4.528;2023-03-24T00:14:12;12.90;99.70
42905;DHT22;28550;51.228;4.528;2023-03-24T00:16:38;13.00;99.00
42905;DHT22;28550;51.228;4.528;2023-03-24T00:19:07;13.00;99.80
42905;DHT22;28550;51.228;4.528;2023-03-24T00:21:33;13.00;99.90
42905;DHT22;28550;51.228;4.528;2023-03-24T00:24:00;12.90;99.90
42905;DHT22;28550;51.228;4.528;2023-03-24T00:26:26;13.00;99.90
42905;DHT22;28550;51.228;4.528;2023-03-24T00:28:52;12.90;99.90
42905;DHT22;28550;51.228;4.528;2023-03-24T00:31:18;12.90;99.90
42905;DHT22;28550;51.228;4.528;2023-03-24T00:33:44;12.90;99.90
42905;DHT22;28550;51.228;4.528;2023-03-24T00:36:15;12.90;99.90
42905;DHT22;28550;51.228;4.528;2023-03-24T00:38:42;13.00;99.90
42905;DHT22;28550;51.228;4.528;2023-03-24T00:41:08;12.90;99.90
42905;DHT22;28550;51.228;4.528;2023-03-24T00:43:37;13.00;99.90
42905;DHT22;28550;51.228;4.528;2023-03-24T00:46:05;12.90;99.90
42905;DHT22;28550;51.228;4.528;2023-03-24T00:48:32;12.90;99.90
42905;DHT22;28550;51.228;4.528;2023-03-24T00:50:59;12.90;99.90
42905;DHT22;28550;51.228;4.528;2023-03-24T00:53:25;12.90;99.90
42905;DHT22;28550;51.228;4.528;2023-03-24T00:55:53;12.80;99.90
42905;DHT22;28550;51.228;4.528;2023-03-24T00:58:19;12.80;99.90
42905;DHT22;28550;51.228;4.528;2023-03-24T01:00:51;12.80;99.90
42905;DHT22;28550;51.228;4.528;2023-03-24T01:03:17;12.80;99.90
42905;DHT22;28550;51.228;4.528;2023-03-24T01:05:46;12.80;99.90
42905;DHT22;28550;51.228;4.528;2023-03-24T01:08:16;12.80;99.90
42905;DHT22;28550;51.228;4.528;2023-03-24T01:10:46;12.90;99.90
42905;DHT22;28550;51.228;4.528;2023-03-24T01:13:21;12.80;99.90
42905;DHT22;28550;51.228;4.528;2023-03-24T01:15:47;12.90;99.90
42905;DHT22;28550;51.228;4.528;2023-03-24T01:18:13;12.90;99.90
42905;DHT22;28550;51.228;4.528;2023-03-24T01:20:40;12.90;99.90
42905;DHT22;28550;51.228;4.528;2023-03-24T01:23:06;12.90;99.90
42905;DHT22;28550;51.228;4.528;2023-03-24T01:25:32;12.90;99.90
42905;DHT22;28550;51.228;4.528;2023-03-24T01:28:00;12.90;99.90
42905;DHT22;28550;51.228;4.528;2023-03-24T01:30:26;13.00;99.90
42905;DHT22;28550;51.228;4.528;2023-03-24T01:32:52;13.00;99.90
42905;DHT22;28550;51.228;4.528;2023-03-24T01:35:19;13.00;99.90
42905;DHT22;28550;51.228;4.528;2023-03-24T01:37:44;13.00;99.90
42905;DHT22;28550;51.228;4.528;2023-03-24T01:40:21;12.90;99.90
42905;DHT22;28550;51.228;4.528;2023-03-24T01:42:48;12.90;99.90
42905;DHT22;28550;51.228;4.528;2023-03-24T01:48:00;13.00;99.90
42905;DHT22;28550;51.228;4.528;2023-03-24T01:50:26;13.00;99.90
42905;DHT22;28550;51.228;4.528;2023-03-24T01:52:55;12.90;99.90
42905;DHT22;28550;51.228;4.528;2023-03-24T01:55:20;12.90;99.90
42905;DHT22;28550;51.228;4.528;2023-03-24T01:57:49;12.90;99.90
42905;DHT22;28550;51.228;4.528;2023-03-24T02:00:16;13.00;99.90
42905;DHT22;28550;51.228;4.528;2023-03-24T02:02:45;13.00;99.90
42905;DHT22;28550;51.228;4.528;2023-03-24T02:05:13;13.00;99.90
42905;DHT22;28550;51.228;4.528;2023-03-24T02:10:10;13.00;99.90
42905;DHT22;28550;51.228;4.528;2023-03-24T02:12:37;12.90;99.90
42905;DHT22;28550;51.228;4.528;2023-03-24T02:15:06;12.90;99.90
42905;DHT22;28550;51.228;4.528;2023-03-24T02:51:36;11.60;62.90
42905;DHT22;28550;51.228;4.528;2023-03-24T02:54:15;11.60;59.90
42905;DHT22;28550;51.228;4.528;2023-03-24T02:56:53;11.60;68.90
42905;DHT22;28550;51.228;4.528;2023-03-24T02:59:40;11.60;58.20
42905;DHT22;28550;51.228;4.528;2023-03-24T03:02:12;11.70;60.10
42905;DHT22;28550;51.228;4.528;2023-03-24T03:04:41;11.70;63.10
42905;DHT22;28550;51.228;4.528;2023-03-24T03:12:31;11.60;43.20
42905;DHT22;28550;51.228;4.528;2023-03-24T03:15:00;11.50;36.60
42905;DHT22;28550;51.228;4.528;2023-03-24T03:17:41;11.50;31.50
42905;DHT22;28550;51.228;4.528;2023-03-24T03:20:08;11.40;35.70
42905;DHT22;28550;51.228;4.528;2023-03-24T03:22:44;11.40;37.50
42905;DHT22;28550;51.228;4.528;2023-03-24T03:25:20;11.30;48.10
42905;DHT22;28550;51.228;4.528;2023-03-24T03:27:47;11.40;27.80
42905;DHT22;28550;51.228;4.528;2023-03-24T03:30:25;11.40;33.10
42905;DHT22;28550;51.228;4.528;2023-03-24T03:32:57;11.30;26.30
42905;DHT22;28550;51.228;4.528;2023-03-24T03:35:34;11.20;28.30
42905;DHT22;28550;51.228;4.528;2023-03-24T03:43:02;11.20;23.00
42905;DHT22;28550;51.228;4.528;2023-03-24T03:45:31;11.20;37.00
42905;DHT22;28550;51.228;4.528;2023-03-24T03:47:57;11.30;33.20
42905;DHT22;28550;51.228;4.528;2023-03-24T03:50:23;11.30;35.70
42905;DHT22;28550;51.228;4.528;2023-03-24T03:52:48;11.30;36.80
42905;DHT22;28550;51.228;4.528;2023-03-24T03:55:14;11.40;29.40
42905;DHT22;28550;51.228;4.528;2023-03-24T03:57:41;11.40;30.90
42905;DHT22;28550;51.228;4.528;2023-03-24T04:00:08;11.40;27.40
42905;DHT22;28550;51.228;4.528;2023-03-24T04:15:56;11.40;36.20
42905;DHT22;28550;51.228;4.528;2023-03-24T04:18:36;11.40;29.30
42905;DHT22;28550;51.228;4.528;2023-03-24T04:21:13;11.50;28.90
42905;DHT22;28550;51.228;4.528;2023-03-24T04:23:44;11.40;34.50
42905;DHT22;28550;51.228;4.528;2023-03-24T04:28:54;11.40;39.40
42905;DHT22;28550;51.228;4.528;2023-03-24T04:31:30;11.50;33.20
42905;DHT22;28550;51.228;4.528;2023-03-24T04:34:41;11.50;31.60
42905;DHT22;28550;51.228;4.528;2023-03-24T04:39:20;11.30;38.60
42905;DHT22;28550;51.228;4.528;2023-03-24T04:42:00;11.10;47.40
42905;DHT22;28550;51.228;4.528;2023-03-24T04:44:26;11.10;48.50
42905;DHT22;28550;51.228;4.528;2023-03-24T04:46:55;11.00;50.90
42905;DHT22;28550;51.228;4.528;2023-03-24T04:49:21;11.00;53.70
42905;DHT22;28550;51.228;4.528;2023-03-24T04:51:50;10.90;53.10
42905;DHT22;28550;51.228;4.528;2023-03-24T04:54:16;10.90;60.70
42905;DHT22;28550;51.228;4.528;2023-03-24T04:56:42;10.90;57.40
42905;DHT22;28550;51.228;4.528;2023-03-24T04:59:10;10.90;61.20
42905;DHT22;28550;51.228;4.528;2023-03-24T05:01:37;10.90;57.10
42905;DHT22;28550;51.228;4.528;2023-03-24T05:04:03;11.00;55.90
42905;DHT22;28550;51.228;4.528;2023-03-24T05:06:29;11.00;52.80
42905;DHT22;28550;51.228;4.528;2023-03-24T05:08:55;11.10;46.70
42905;DHT22;28550;51.228;4.528;2023-03-24T05:11:23;11.10;42.70
42905;DHT22;28550;51.228;4.528;2023-03-24T05:13:49;11.10;46.20
42905;DHT22;28550;51.228;4.528;2023-03-24T05:16:15;11.20;45.00
42905;DHT22;28550;51.228;4.528;2023-03-24T05:18:41;11.20;37.00
42905;DHT22;28550;51.228;4.528;2023-03-24T05:21:06;11.00;33.80
42905;DHT22;28550;51.228;4.528;2023-03-24T05:23:32;10.90;33.20
42905;DHT22;28550;51.228;4.528;2023-03-24T05:25:57;10.90;41.30
42905;DHT22;28550;51.228;4.528;2023-03-24T05:28:23;10.80;50.30
42905;DHT22;28550;51.228;4.528;2023-03-24T05:30:49;10.70;52.50
42905;DHT22;28550;51.228;4.528;2023-03-24T05:33:15;10.70;54.10
42905;DHT22;28550;51.228;4.528;2023-03-24T05:35:40;10.70;56.10
42905;DHT22;28550;51.228;4.528;2023-03-24T05:38:06;10.70;53.20
42905;DHT22;28550;51.228;4.528;2023-03-24T05:40:32;10.70;58.40
42905;DHT22;28550;51.228;4.528;2023-03-24T05:43:14;10.60;58.50
42905;DHT22;28550;51.228;4.528;2023-03-24T05:48:43;10.50;64.90
42905;DHT22;28550;51.228;4.528;2023-03-24T05:51:09;10.40;70.00
42905;DHT22;28550;51.228;4.528;2023-03-24T05:53:36;10.40;75.50
42905;DHT22;28550;51.228;4.528;2023-03-24T05:56:05;10.40;73.40
42905;DHT22;28550;51.228;4.528;2023-03-24T05:58:30;10.50;70.70
42905;DHT22;28550;51.228;4.528;2023-03-24T06:00:58;10.50;70.00
42905;DHT22;28550;51.228;4.528;2023-03-24T06:03:24;10.50;68.90
42905;DHT22;28550;51.228;4.528;2023-03-24T06:05:49;10.50;64.10
42905;DHT22;28550;51.228;4.528;2023-03-24T06:08:15;10.60;60.50
42905;DHT22;28550;51.228;4.528;2023-03-24T06:10:43;10.60;59.30
42905;DHT22;28550;51.228;4.528;2023-03-24T06:13:15;10.60;67.40
42905;DHT22;28550;51.228;4.528;2023-03-24T06:18:11;10.70;59.80
42905;DHT22;28550;51.228;4.528;2023-03-24T06:23:10;10.60;59.00
42905;DHT22;28550;51.228;4.528;2023-03-24T06:25:36;10.70;59.80
42905;DHT22;28550;51.228;4.528;2023-03-24T06:28:02;10.80;59.10
42905;DHT22;28550;51.228;4.528;2023-03-24T06:30:31;10.90;45.90
42905;DHT22;28550;51.228;4.528;2023-03-24T06:32:59;11.10;47.20
42905;DHT22;28550;51.228;4.528;2023-03-24T06:35:25;11.30;32.10
42905;DHT22;28550;51.228;4.528;2023-03-24T06:37:53;11.40;20.90
42905;DHT22;28550;51.228;4.528;2023-03-24T06:40:19;11.40;21.70
42905;DHT22;28550;51.228;4.528;2023-03-24T06:42:54;11.40;23.70
42905;DHT22;28550;51.228;4.528;2023-03-24T06:45:20;11.40;26.50
42905;DHT22;28550;51.228;4.528;2023-03-24T06:47:45;11.40;25.60
42905;DHT22;28550;51.228;4.528;2023-03-24T06:53:17;11.60;31.40
42905;DHT22;28550;51.228;4.528;2023-03-24T06:58:37;12.30;1.00
42905;DHT22;28550;51.228;4.528;2023-03-24T07:01:12;12.40;1.00
42905;DHT22;28550;51.228;4.528;2023-03-24T07:03:40;12.40;1.00
42905;DHT22;28550;51.228;4.528;2023-03-24T07:06:07;12.40;1.00
42905;DHT22;28550;51.228;4.528;2023-03-24T07:08:34;12.60;1.00
42905;DHT22;28550;51.228;4.528;2023-03-24T07:11:10;12.70;1.00
42905;DHT22;28550;51.228;4.528;2023-03-24T07:16:39;12.70;1.00
42905;DHT22;28550;51.228;4.528;2023-03-24T07:19:05;12.60;1.00
42905;DHT22;28550;51.228;4.528;2023-03-24T07:21:30;12.60;1.00
42905;DHT22;28550;51.228;4.528;2023-03-24T07:23:56;12.70;1.00
42905;DHT22;28550;51.228;4.528;2023-03-24T07:26:21;12.70;1.00
42905;DHT22;28550;51.228;4.528;2023-03-24T07:28:50;12.60;1.00
42905;DHT22;28550;51.228;4.528;2023-03-24T07:31:17;12.70;1.00
42905;DHT22;28550;51.228;4.528;2023-03-24T07:33:50;12.60;1.00
42905;DHT22;28550;51.228;4.528;2023-03-24T07:36:19;13.10;1.00
42905;DHT22;28550;51.228;4.528;2023-03-24T07:38:45;13.80;99.90
42905;DHT22;28550;51.228;4.528;2023-03-24T07:41:10;14.10;1.00
42905;DHT22;28550;51.228;4.528;2023-03-24T07:43:38;14.30;99.90
42905;DHT22;28550;51.228;4.528;2023-03-24T07:46:06;14.10;1.00
42905;DHT22;28550;51.228;4.528;2023-03-24T07:48:32;13.70;82.70
42905;DHT22;28550;51.228;4.528;2023-03-24T07:53:57;13.30;99.90
42905;DHT22;28550;51.228;4.528;2023-03-24T07:56:27;13.30;99.90
42905;DHT22;28550;51.228;4.528;2023-03-24T07:58:54;13.10;99.90
42905;DHT22;28550;51.228;4.528;2023-03-24T08:01:22;12.80;1.00
42905;DHT22;28550;51.228;4.528;2023-03-24T08:03:47;12.70;1.00
42905;DHT22;28550;51.228;4.528;2023-03-24T08:06:31;12.70;1.00
42905;DHT22;28550;51.228;4.528;2023-03-24T08:09:06;12.60;1.00
42905;DHT22;28550;51.228;4.528;2023-03-24T08:11:31;12.70;1.00
42905;DHT22;28550;51.228;4.528;2023-03-24T08:13:58;12.70;1.00
42905;DHT22;28550;51.228;4.528;2023-03-24T08:16:26;12.80;1.00
42905;DHT22;28550;51.228;4.528;2023-03-24T08:18:54;12.80;1.00
42905;DHT22;28550;51.228;4.528;2023-03-24T08:21:41;12.90;1.00
42905;DHT22;28550;51.228;4.528;2023-03-24T08:26:53;13.00;1.00
42905;DHT22;28550;51.228;4.528;2023-03-24T08:35:12;12.80;1.00
42905;DHT22;28550;51.228;4.528;2023-03-24T08:37:40;13.40;1.00
42905;DHT22;28550;51.228;4.528;2023-03-24T08:40:10;14.40;1.00
42905;DHT22;28550;51.228;4.528;2023-03-24T08:42:47;15.40;97.30
42905;DHT22;28550;51.228;4.528;2023-03-24T08:45:26;15.50;99.90
42905;DHT22;28550;51.228;4.528;2023-03-24T08:47:55;16.10;27.70
42905;DHT22;28550;51.228;4.528;2023-03-24T08:50:24;16.20;1.00
42905;DHT22;28550;51.228;4.528;2023-03-24T08:52:50;16.50;27.40
42905;DHT22;28550;51.228;4.528;2023-03-24T08:55:17;16.70;1.00
42905;DHT22;28550;51.228;4.528;2023-03-24T08:57:46;17.10;1.00
42905;DHT22;28550;51.228;4.528;2023-03-24T09:00:12;18.00;1.00
42905;DHT22;28550;51.228;4.528;2023-03-24T09:02:40;18.10;99.90
42905;DHT22;28550;51.228;4.528;2023-03-24T09:05:06;17.30;1.00
42905;DHT22;28550;51.228;4.528;2023-03-24T09:07:34;16.40;99.90
42905;DHT22;28550;51.228;4.528;2023-03-24T09:10:02;15.70;1.00
42905;DHT22;28550;51.228;4.528;2023-03-24T09:12:27;15.10;99.90
42905;DHT22;28550;51.228;4.528;2023-03-24T09:14:53;14.80;1.00
42905;DHT22;28550;51.228;4.528;2023-03-24T09:17:20;14.60;99.90
42905;DHT22;28550;51.228;4.528;2023-03-24T09:19:50;14.40;99.90
42905;DHT22;28550;51.228;4.528;2023-03-24T09:22:15;14.30;1.00
42905;DHT22;28550;51.228;4.528;2023-03-24T09:24:41;14.30;1.00
42905;DHT22;28550;51.228;4.528;2023-03-24T09:27:29;14.30;99.90
42905;DHT22;28550;51.228;4.528;2023-03-24T09:29:57;14.20;1.00
42905;DHT22;28550;51.228;4.528;2023-03-24T09:32:23;14.20;99.90
42905;DHT22;28550;51.228;4.528;2023-03-24T09:34:50;14.30;1.00
42905;DHT22;28550;51.228;4.528;2023-03-24T09:37:15;14.40;1.00
42905;DHT22;28550;51.228;4.528;2023-03-24T09:39:42;14.30;1.00
42905;DHT22;28550;51.228;4.528;2023-03-24T09:42:09;14.00;99.90
42905;DHT22;28550;51.228;4.528;2023-03-24T09:44:42;14.00;1.00
42905;DHT22;28550;51.228;4.528;2023-03-24T09:52:35;14.70;99.90
42905;DHT22;28550;51.228;4.528;2023-03-24T09:55:03;15.30;1.00
42905;DHT22;28550;51.228;4.528;2023-03-24T09:57:38;15.60;1.00
42905;DHT22;28550;51.228;4.528;2023-03-24T10:02:42;15.00;79.30
42905;DHT22;28550;51.228;4.528;2023-03-24T10:05:13;15.90;17.10
42905;DHT22;28550;51.228;4.528;2023-03-24T10:07:46;16.70;99.90
42905;DHT22;28550;51.228;4.528;2023-03-24T10:10:17;16.90;99.90
42905;DHT22;28550;51.228;4.528;2023-03-24T10:12:47;16.90;99.90
42905;DHT22;28550;51.228;4.528;2023-03-24T10:15:14;17.50;1.00
42905;DHT22;28550;51.228;4.528;2023-03-24T10:17:53;18.10;1.00
42905;DHT22;28550;51.228;4.528;2023-03-24T10:23:03;19.50;99.90
42905;DHT22;28550;51.228;4.528;2023-03-24T10:25:51;19.20;60.90
42905;DHT22;28550;51.228;4.528;2023-03-24T10:30:49;17.30;39.50
42905;DHT22;28550;51.228;4.528;2023-03-24T10:33:15;16.20;99.90
42905;DHT22;28550;51.228;4.528;2023-03-24T10:38:43;15.00;99.90
42905;DHT22;28550;51.228;4.528;2023-03-24T10:41:14;14.40;58.80
42905;DHT22;28550;51.228;4.528;2023-03-24T10:43:42;14.10;1.00
42905;DHT22;28550;51.228;4.528;2023-03-24T10:46:11;14.00;1.00
42905;DHT22;28550;51.228;4.528;2023-03-24T10:51:20;13.60;99.90
42905;DHT22;28550;51.228;4.528;2023-03-24T10:56:40;12.90;1.00
42905;DHT22;28550;51.228;4.528;2023-03-24T11:01:59;12.00;48.50
42905;DHT22;28550;51.228;4.528;2023-03-24T11:04:28;11.50;72.50
42905;DHT22;28550;51.228;4.528;2023-03-24T11:07:15;11.10;89.20
42905;DHT22;28550;51.228;4.528;2023-03-24T11:09:59;10.90;95.40
42905;DHT22;28550;51.228;4.528;2023-03-24T11:12:29;10.80;95.90
42905;DHT22;28550;51.228;4.528;2023-03-24T11:17:40;10.60;97.70
42905;DHT22;28550;51.228;4.528;2023-03-24T11:25:27;11.30;99.90
42905;DHT22;28550;51.228;4.528;2023-03-24T11:28:00;11.40;99.90
42905;DHT22;28550;51.228;4.528;2023-03-24T11:30:27;11.40;99.90
42905;DHT22;28550;51.228;4.528;2023-03-24T11:32:56;11.30;99.90
42905;DHT22;28550;51.228;4.528;2023-03-24T11:35:24;11.30;99.60
42905;DHT22;28550;51.228;4.528;2023-03-24T11:38:14;11.30;99.40
42905;DHT22;28550;51.228;4.528;2023-03-24T11:40:52;11.40;99.90
42905;DHT22;28550;51.228;4.528;2023-03-24T11:43:19;11.40;99.80
42905;DHT22;28550;51.228;4.528;2023-03-24T11:46:10;11.40;95.80
42905;DHT22;28550;51.228;4.528;2023-03-24T11:48:47;11.30;83.00
42905;DHT22;28550;51.228;4.528;2023-03-24T11:53:48;11.20;89.00
42905;DHT22;28550;51.228;4.528;2023-03-24T11:59:20;12.00;90.40
42905;DHT22;28550;51.228;4.528;2023-03-24T20:27:57;10.20;84.30
42905;DHT22;28550;51.228;4.528;2023-03-24T20:44:47;10.00;95.10
42905;DHT22;28550;51.228;4.528;2023-03-24T21:03:45;9.80;95.20
42905;DHT22;28550;51.228;4.528;2023-03-24T22:50:02;9.80;65.60
42905;DHT22;28550;51.228;4.528;2023-03-24T23:06:11;9.80;57.60
42905;DHT22;28550;51.228;4.528;2023-03-24T23:18:09;9.90;52.30
42905;DHT22;28550;51.228;4.528;2023-03-24T23:27:51;9.90;43.80
